createdAt,value
2023-03-06T00:01:00.970Z,51.95
2023-03-06T00:02:09.924Z,51.90
2023-03-06T00:03:20.323Z,51.96
2023-03-06T00:04:29.240Z,51.56
2023-03-06T00:05:38.414Z,51.76
2023-03-06T00:06:48.241Z,51.62
2023-03-06T00:07:57.256Z,51.54
2023-03-06T00:09:06.072Z,51.59
2023-03-06T00:10:19.173Z,51.61
2023-03-06T00:11:29.162Z,51.58
2023-03-06T00:12:39.943Z,51.80
2023-03-06T00:13:50.389Z,51.94
2023-03-06T00:16:15.557Z,51.92
2023-03-06T00:17:24.780Z,51.70
2023-03-06T00:19:49.321Z,51.72
2023-03-06T00:20:59.397Z,51.87
2023-03-06T00:23:28.274Z,51.66
2023-03-06T00:24:37.917Z,51.71
2023-03-06T00:25:47.648Z,51.75
2023-03-06T00:26:56.646Z,51.55
2023-03-06T00:28:07.202Z,51.44
2023-03-06T00:29:16.465Z,51.43
2023-03-06T00:30:29.803Z,51.49
2023-03-06T00:31:39.529Z,51.56
2023-03-06T00:32:49.200Z,51.66
2023-03-06T00:33:58.966Z,51.59
2023-03-06T00:35:08.341Z,51.97
2023-03-06T00:36:20.276Z,52.01
2023-03-06T00:37:28.814Z,51.94
2023-03-06T00:38:39.436Z,51.97
2023-03-06T00:41:08.644Z,52.17
2023-03-06T00:42:18.676Z,52.21
2023-03-06T00:43:27.115Z,52.26
2023-03-06T00:44:35.850Z,52.48
2023-03-06T00:45:44.502Z,52.82
2023-03-06T00:46:54.396Z,52.89
2023-03-06T00:48:04.932Z,52.90
2023-03-06T00:49:13.448Z,53.18
2023-03-06T00:50:22.705Z,53.48
2023-03-06T00:51:31.692Z,53.48
2023-03-06T00:52:41.756Z,53.44
2023-03-06T00:53:50.296Z,53.16
2023-03-06T00:55:00.648Z,53.30
2023-03-06T00:56:10.972Z,53.41
2023-03-06T00:57:21.585Z,53.65
2023-03-06T00:58:31.318Z,53.74
2023-03-06T00:59:40.591Z,54.01
2023-03-06T01:00:50.012Z,54.21
2023-03-06T01:01:59.441Z,54.41
2023-03-06T01:03:09.601Z,54.35
2023-03-06T01:04:19.169Z,54.11
2023-03-06T01:05:32.007Z,54.06
2023-03-06T01:06:42.039Z,54.12
2023-03-06T01:07:50.862Z,54.12
2023-03-06T01:09:02.147Z,54.04
2023-03-06T01:10:12.477Z,54.32
2023-03-06T01:11:22.417Z,54.44
2023-03-06T01:12:30.966Z,54.55
2023-03-06T01:13:41.856Z,54.64
2023-03-06T01:14:51.012Z,54.74
2023-03-06T01:16:11.910Z,54.76
2023-03-06T01:17:21.136Z,55.03
2023-03-06T01:18:29.941Z,55.37
2023-03-06T01:19:38.610Z,55.58
2023-03-06T01:20:48.121Z,55.90
2023-03-06T01:21:57.468Z,55.93
2023-03-06T01:23:06.943Z,56.31
2023-03-06T01:24:16.679Z,57.59
2023-03-06T01:25:27.047Z,58.08
2023-03-06T01:26:37.507Z,58.03
2023-03-06T01:27:46.542Z,58.53
2023-03-06T01:28:57.472Z,58.59
2023-03-06T01:30:08.796Z,58.63
2023-03-06T01:31:17.876Z,58.76
2023-03-06T01:32:27.662Z,58.96
2023-03-06T01:33:38.404Z,59.09
2023-03-06T01:34:47.206Z,59.23
2023-03-06T01:35:56.727Z,59.23
2023-03-06T01:37:05.549Z,59.12
2023-03-06T01:38:16.051Z,59.60
2023-03-06T01:39:26.775Z,59.91
2023-03-06T01:40:37.956Z,60.27
2023-03-06T01:41:48.701Z,60.30
2023-03-06T01:42:58.289Z,60.29
2023-03-06T01:45:28.431Z,60.64
2023-03-06T01:46:45.664Z,60.68
2023-03-06T01:47:55.634Z,60.91
2023-03-06T01:49:08.319Z,61.12
2023-03-06T01:50:18.885Z,61.25
2023-03-06T01:52:51.972Z,61.41
2023-03-06T01:54:05.400Z,61.47
2023-03-06T01:55:18.280Z,61.57
2023-03-06T01:56:29.243Z,61.59
2023-03-06T01:57:39.958Z,61.60
2023-03-06T01:58:50.155Z,62.02
2023-03-06T02:00:06.460Z,62.16
2023-03-06T02:01:19.216Z,62.06
2023-03-06T02:02:27.934Z,61.75
2023-03-06T02:03:38.552Z,61.45
2023-03-06T02:04:48.781Z,61.54
2023-03-06T02:06:00.220Z,61.87
2023-03-06T02:07:12.064Z,61.90
2023-03-06T02:08:23.271Z,62.02
2023-03-06T02:11:11.200Z,62.31
2023-03-06T02:12:22.270Z,62.34
2023-03-06T02:13:32.419Z,62.24
2023-03-06T02:14:42.349Z,62.23
2023-03-06T02:15:51.904Z,62.65
2023-03-06T02:17:02.000Z,62.93
2023-03-06T02:18:11.805Z,63.22
2023-03-06T02:19:43.569Z,62.95
2023-03-06T02:20:56.317Z,62.67
2023-03-06T02:22:06.514Z,62.70
2023-03-06T02:24:54.424Z,62.80
2023-03-06T02:26:04.765Z,63.01
2023-03-06T02:27:17.048Z,63.08
2023-03-06T02:28:25.758Z,63.38
2023-03-06T02:29:34.396Z,63.39
2023-03-06T02:30:47.461Z,63.52
2023-03-06T02:33:17.413Z,64.23
2023-03-06T02:35:58.129Z,63.61
2023-03-06T02:37:10.483Z,64.20
2023-03-06T02:38:23.055Z,63.71
2023-03-06T02:39:34.645Z,63.93
2023-03-06T02:40:48.072Z,64.02
2023-03-06T02:41:57.061Z,64.36
2023-03-06T02:44:28.021Z,64.30
2023-03-06T02:46:57.368Z,64.28
2023-03-06T02:48:08.503Z,64.36
2023-03-06T02:49:17.933Z,64.48
2023-03-06T02:50:27.604Z,64.45
2023-03-06T02:51:37.180Z,64.37
2023-03-06T02:52:45.739Z,64.29
2023-03-06T02:53:55.536Z,64.50
2023-03-06T02:55:05.282Z,64.90
2023-03-06T02:56:15.606Z,65.09
2023-03-06T02:57:24.697Z,65.00
2023-03-06T02:58:35.680Z,65.11
2023-03-06T02:59:44.969Z,64.97
2023-03-06T03:00:55.433Z,64.96
2023-03-06T03:02:04.452Z,65.26
2023-03-06T03:04:29.423Z,65.33
2023-03-06T03:05:38.537Z,65.06
2023-03-06T03:06:49.373Z,65.05
2023-03-06T03:07:58.671Z,65.56
2023-03-06T03:09:11.552Z,65.31
2023-03-06T03:10:21.098Z,65.18
2023-03-06T03:11:30.420Z,64.65
2023-03-06T03:12:41.896Z,64.00
2023-03-06T03:13:50.509Z,64.07
2023-03-06T03:15:01.671Z,64.05
2023-03-06T03:16:16.180Z,64.50
2023-03-06T03:17:25.439Z,64.86
2023-03-06T03:18:35.775Z,65.34
2023-03-06T03:19:44.373Z,65.54
2023-03-06T03:20:55.414Z,65.22
2023-03-06T03:22:05.654Z,65.21
2023-03-06T03:23:15.288Z,65.64
2023-03-06T03:24:24.849Z,65.30
2023-03-06T03:25:34.595Z,65.28
2023-03-06T03:26:47.302Z,65.10
2023-03-06T03:27:58.529Z,65.63
2023-03-06T03:29:10.284Z,65.31
2023-03-06T03:30:19.566Z,65.53
2023-03-06T03:31:28.192Z,65.88
2023-03-06T03:32:37.582Z,65.71
2023-03-06T03:33:47.688Z,65.81
2023-03-06T03:34:57.315Z,65.80
2023-03-06T03:36:08.747Z,66.22
2023-03-06T03:37:19.930Z,65.75
2023-03-06T03:38:30.716Z,65.62
2023-03-06T03:39:39.801Z,65.71
2023-03-06T03:40:49.038Z,65.40
2023-03-06T03:43:13.653Z,65.48
2023-03-06T03:44:23.498Z,65.55
2023-03-06T03:45:32.058Z,65.54
2023-03-06T03:46:41.428Z,65.54
2023-03-06T03:47:52.249Z,66.20
2023-03-06T03:49:02.390Z,66.26
2023-03-06T03:50:12.453Z,65.53
2023-03-06T03:51:22.085Z,65.61
2023-03-06T03:52:32.520Z,66.06
2023-03-06T03:53:42.060Z,65.56
2023-03-06T03:54:50.895Z,64.94
2023-03-06T03:55:59.737Z,64.80
2023-03-06T03:57:09.418Z,64.99
2023-03-06T03:58:20.291Z,64.94
2023-03-06T03:59:30.830Z,65.07
2023-03-06T04:01:58.942Z,65.63
2023-03-06T04:03:07.594Z,66.03
2023-03-06T04:04:19.118Z,66.21
2023-03-06T04:06:43.157Z,66.60
2023-03-06T04:07:52.277Z,66.95
2023-03-06T04:09:01.955Z,67.09
2023-03-06T04:10:13.953Z,66.91
2023-03-06T04:11:24.065Z,67.02
2023-03-06T04:12:32.908Z,67.11
2023-03-06T04:14:58.625Z,67.03
2023-03-06T04:17:24.208Z,66.88
2023-03-06T04:18:33.816Z,66.72
2023-03-06T04:19:44.568Z,66.91
2023-03-06T04:20:55.240Z,66.50
2023-03-06T04:22:04.888Z,66.76
2023-03-06T04:23:15.564Z,66.87
2023-03-06T04:25:41.115Z,66.75
2023-03-06T04:26:51.755Z,66.74
2023-03-06T04:28:00.591Z,66.84
2023-03-06T04:29:10.556Z,67.09
2023-03-06T04:30:20.503Z,66.96
2023-03-06T04:31:30.362Z,66.89
2023-03-06T04:32:40.324Z,66.84
2023-03-06T04:33:50.444Z,66.99
2023-03-06T04:35:00.458Z,67.05
2023-03-06T04:36:27.376Z,66.91
2023-03-06T04:37:38.870Z,66.66
2023-03-06T04:38:49.122Z,66.98
2023-03-06T04:39:58.514Z,67.18
2023-03-06T04:41:07.312Z,67.22
2023-03-06T04:42:17.239Z,67.46
2023-03-06T04:43:26.146Z,67.07
2023-03-06T04:44:37.672Z,66.99
2023-03-06T04:45:47.496Z,67.18
2023-03-06T04:48:17.631Z,67.04
2023-03-06T04:49:27.091Z,66.96
2023-03-06T04:50:38.657Z,67.23
2023-03-06T04:51:47.638Z,66.99
2023-03-06T04:52:56.375Z,66.58
2023-03-06T04:54:05.772Z,66.96
2023-03-06T04:56:32.337Z,67.86
2023-03-06T04:57:43.156Z,68.03
2023-03-06T04:58:52.144Z,67.65
2023-03-06T05:00:04.287Z,67.21
2023-03-06T05:02:48.932Z,67.21
2023-03-06T05:03:57.391Z,67.32
2023-03-06T05:05:07.526Z,67.72
2023-03-06T05:06:17.618Z,68.31
2023-03-06T05:08:41.910Z,67.81
2023-03-06T05:09:51.514Z,68.22
2023-03-06T05:11:01.851Z,68.31
2023-03-06T05:12:10.563Z,67.87
2023-03-06T05:13:19.401Z,67.06
2023-03-06T05:14:30.384Z,67.24
2023-03-06T05:15:41.916Z,67.48
2023-03-06T05:16:50.980Z,67.23
2023-03-06T05:17:59.708Z,67.35
2023-03-06T05:19:08.240Z,67.84
2023-03-06T05:20:24.586Z,67.76
2023-03-06T05:21:34.791Z,67.74
2023-03-06T05:22:45.554Z,67.84
2023-03-06T05:23:54.265Z,68.52
2023-03-06T05:25:04.342Z,68.02
2023-03-06T05:26:15.537Z,68.52
2023-03-06T05:27:24.127Z,68.21
2023-03-06T05:28:33.653Z,67.89
2023-03-06T05:29:42.557Z,67.35
2023-03-06T05:30:52.273Z,67.05
2023-03-06T05:32:01.451Z,67.23
2023-03-06T05:33:10.112Z,67.60
2023-03-06T05:34:18.838Z,67.54
2023-03-06T05:35:27.683Z,67.58
2023-03-06T05:36:38.018Z,67.25
2023-03-06T05:37:47.154Z,67.31
2023-03-06T05:38:57.068Z,67.07
2023-03-06T05:40:09.386Z,67.13
2023-03-06T05:42:33.942Z,67.72
2023-03-06T05:43:44.277Z,67.58
2023-03-06T05:44:53.096Z,67.94
2023-03-06T05:46:06.982Z,67.99
2023-03-06T05:47:17.292Z,67.72
2023-03-06T05:48:25.693Z,67.60
2023-03-06T05:49:36.532Z,67.85
2023-03-06T05:50:46.193Z,67.92
2023-03-06T05:51:54.597Z,67.81
2023-03-06T05:53:04.413Z,67.91
2023-03-06T05:54:13.956Z,67.92
2023-03-06T05:55:23.923Z,67.81
2023-03-06T05:56:33.088Z,68.10
2023-03-06T05:57:42.197Z,67.84
2023-03-06T05:58:53.200Z,67.84
2023-03-06T06:00:04.502Z,67.89
2023-03-06T06:02:34.687Z,67.37
2023-03-06T06:03:43.867Z,67.58
2023-03-06T06:04:54.651Z,67.44
2023-03-06T06:06:10.135Z,67.00
2023-03-06T06:08:33.676Z,67.91
2023-03-06T06:09:45.429Z,66.92
2023-03-06T06:10:54.401Z,66.60
2023-03-06T06:12:04.120Z,66.15
2023-03-06T06:13:13.453Z,65.97
2023-03-06T06:14:22.900Z,65.50
2023-03-06T06:15:32.283Z,65.74
2023-03-06T06:16:42.488Z,65.33
2023-03-06T06:17:52.002Z,65.40
2023-03-06T06:19:01.642Z,65.87
2023-03-06T06:20:12.110Z,65.65
2023-03-06T06:22:38.063Z,64.71
2023-03-06T06:23:47.643Z,64.11
2023-03-06T06:24:57.172Z,63.00
2023-03-06T06:26:08.096Z,62.21
2023-03-06T06:27:22.614Z,62.68
2023-03-06T06:28:32.964Z,61.68
2023-03-06T06:29:41.793Z,61.09
2023-03-06T06:30:50.485Z,61.31
2023-03-06T06:32:00.377Z,60.79
2023-03-06T06:33:08.864Z,59.22
2023-03-06T06:34:18.862Z,58.23
2023-03-06T06:35:27.983Z,58.15
2023-03-06T06:36:37.446Z,58.91
2023-03-06T06:37:47.009Z,58.46
2023-03-06T06:38:55.724Z,57.94
2023-03-06T06:40:06.849Z,58.30
2023-03-06T06:42:38.259Z,58.10
2023-03-06T06:43:42.142Z,58.02
2023-03-06T06:44:52.071Z,58.29
2023-03-06T06:46:24.259Z,58.55
2023-03-06T06:47:28.411Z,58.82
2023-03-06T06:48:23.918Z,59.36
2023-03-06T06:52:13.196Z,59.59
2023-03-06T06:54:38.119Z,58.95
2023-03-06T06:57:02.973Z,59.03
2023-03-06T06:58:11.639Z,59.22
2023-03-06T06:59:24.150Z,59.18
2023-03-06T07:00:33.480Z,59.70
2023-03-06T07:01:43.760Z,59.56
2023-03-06T07:02:52.262Z,59.61
2023-03-06T07:04:01.471Z,59.45
2023-03-06T07:05:11.533Z,59.96
2023-03-06T07:06:21.063Z,60.24
2023-03-06T07:07:30.715Z,60.43
2023-03-06T07:08:39.423Z,60.61
2023-03-06T07:09:48.508Z,60.65
2023-03-06T07:10:59.388Z,60.84
2023-03-06T07:12:09.031Z,60.72
2023-03-06T07:13:18.754Z,60.80
2023-03-06T07:14:28.880Z,60.36
2023-03-06T07:15:37.491Z,60.73
2023-03-06T07:16:47.037Z,60.51
2023-03-06T07:19:11.105Z,61.02
2023-03-06T07:20:21.584Z,61.27
2023-03-06T07:21:30.345Z,61.20
2023-03-06T07:23:57.095Z,61.10
2023-03-06T07:25:07.642Z,61.31
2023-03-06T07:26:17.077Z,61.27
2023-03-06T07:27:26.538Z,61.41
2023-03-06T07:28:49.804Z,61.29
2023-03-06T07:31:01.913Z,61.51
2023-03-06T07:32:12.063Z,61.47
2023-03-06T07:34:37.117Z,60.95
2023-03-06T07:35:46.868Z,61.23
2023-03-06T07:36:57.719Z,61.72
2023-03-06T07:38:06.603Z,61.50
2023-03-06T07:40:31.129Z,60.96
2023-03-06T07:41:40.150Z,61.14
2023-03-06T07:44:04.725Z,61.09
2023-03-06T07:45:14.520Z,61.23
2023-03-06T07:46:24.478Z,61.43
2023-03-06T07:47:33.888Z,61.02
2023-03-06T07:48:43.659Z,61.49
2023-03-06T07:49:57.506Z,61.69
2023-03-06T07:52:25.720Z,61.08
2023-03-06T07:54:50.022Z,61.20
2023-03-06T07:55:59.095Z,61.37
2023-03-06T07:57:08.409Z,60.66
2023-03-06T07:58:16.905Z,61.31
2023-03-06T07:59:26.627Z,60.87
2023-03-06T08:00:35.273Z,60.81
2023-03-06T08:01:45.297Z,61.03
2023-03-06T08:04:09.088Z,60.91
2023-03-06T08:05:19.820Z,60.77
2023-03-06T08:06:30.128Z,60.31
2023-03-06T08:09:01.305Z,60.99
2023-03-06T08:10:14.360Z,59.65
2023-03-06T08:12:46.673Z,58.46
2023-03-06T08:13:57.556Z,58.04
2023-03-06T08:15:07.919Z,57.77
2023-03-06T08:16:21.198Z,57.70
2023-03-06T08:17:29.698Z,57.65
2023-03-06T08:18:41.345Z,57.63
2023-03-06T08:19:59.749Z,57.36
2023-03-06T08:21:11.710Z,56.72
2023-03-06T08:22:20.605Z,56.29
2023-03-06T08:23:29.575Z,55.98
2023-03-06T08:24:38.330Z,56.11
2023-03-06T08:27:06.015Z,57.18
2023-03-06T08:28:14.908Z,56.99
2023-03-06T08:29:24.884Z,57.11
2023-03-06T08:30:33.978Z,57.30
2023-03-06T08:31:45.205Z,57.26
2023-03-06T08:32:55.715Z,56.66
2023-03-06T08:34:16.324Z,57.30
2023-03-06T08:35:24.867Z,57.22
2023-03-06T08:36:34.117Z,57.13
2023-03-06T08:37:43.160Z,56.87
2023-03-06T08:38:53.534Z,56.82
2023-03-06T08:41:20.688Z,57.04
2023-03-06T08:42:29.400Z,56.81
2023-03-06T08:43:37.939Z,56.79
2023-03-06T08:44:46.456Z,56.59
2023-03-06T08:45:58.186Z,56.74
2023-03-06T08:48:23.188Z,56.54
2023-03-06T08:49:32.435Z,56.87
2023-03-06T08:50:41.603Z,57.21
2023-03-06T08:51:51.211Z,56.48
2023-03-06T08:53:00.104Z,56.75
2023-03-06T08:54:12.430Z,56.16
2023-03-06T08:55:22.067Z,56.58
2023-03-06T08:56:33.775Z,56.32
2023-03-06T08:57:43.468Z,55.57
2023-03-06T08:58:53.858Z,55.04
2023-03-06T09:00:06.796Z,54.61
2023-03-06T09:01:19.526Z,54.68
2023-03-06T09:02:29.016Z,54.54
2023-03-06T09:04:53.639Z,54.45
2023-03-06T09:07:17.340Z,53.52
2023-03-06T09:08:25.844Z,53.62
2023-03-06T09:09:35.069Z,53.06
2023-03-06T09:10:54.301Z,53.39
2023-03-06T09:12:04.057Z,52.75
2023-03-06T09:13:12.992Z,53.32
2023-03-06T09:14:21.835Z,53.30
2023-03-06T09:15:30.566Z,53.01
2023-03-06T09:16:39.938Z,53.19
2023-03-06T09:17:49.018Z,53.80
2023-03-06T09:18:58.766Z,53.49
2023-03-06T09:20:10.663Z,53.70
2023-03-06T09:21:21.483Z,53.27
2023-03-06T09:22:30.246Z,53.59
2023-03-06T09:23:40.259Z,54.00
2023-03-06T09:24:49.378Z,53.90
2023-03-06T09:25:59.395Z,53.60
2023-03-06T09:27:08.303Z,53.22
2023-03-06T09:28:17.436Z,52.74
2023-03-06T09:29:26.289Z,53.20
2023-03-06T09:31:50.942Z,52.51
2023-03-06T09:32:59.946Z,52.27
2023-03-06T09:34:09.063Z,52.24
2023-03-06T09:35:18.940Z,52.63
2023-03-06T09:36:27.743Z,52.15
2023-03-06T09:38:52.815Z,52.07
2023-03-06T09:42:51.007Z,52.39
2023-03-06T09:44:07.870Z,52.39
2023-03-06T09:46:47.603Z,51.80
2023-03-06T09:49:35.100Z,50.90
2023-03-06T09:50:47.712Z,50.65
2023-03-06T09:52:13.018Z,49.47
2023-03-06T09:55:04.894Z,49.10
2023-03-06T09:56:23.944Z,48.47
2023-03-06T10:00:21.249Z,48.99
2023-03-06T10:01:37.205Z,49.40
2023-03-06T10:06:15.925Z,50.08
2023-03-06T10:07:37.848Z,50.34
2023-03-06T10:08:53.661Z,49.30
2023-03-06T10:10:06.632Z,49.08
2023-03-06T10:12:38.192Z,49.33
2023-03-06T10:15:20.484Z,48.15
2023-03-06T10:16:33.805Z,48.96
2023-03-06T10:17:43.877Z,48.64
2023-03-06T10:20:24.395Z,47.73
2023-03-06T10:21:49.411Z,47.28
2023-03-06T10:24:50.308Z,46.92
2023-03-06T10:27:34.321Z,47.19
2023-03-06T10:28:46.925Z,47.43
2023-03-06T10:30:26.584Z,47.28
2023-03-06T10:31:38.720Z,47.83
2023-03-06T10:34:38.042Z,46.97
2023-03-06T10:35:53.332Z,46.84
2023-03-06T10:38:37.855Z,45.92
2023-03-06T10:41:31.951Z,45.89
2023-03-06T10:44:09.079Z,45.85
2023-03-06T10:46:44.884Z,45.67
2023-03-06T10:49:31.546Z,46.81
2023-03-06T10:50:40.372Z,46.79
2023-03-06T10:53:23.760Z,46.68
2023-03-06T10:54:42.191Z,46.67
2023-03-06T10:55:58.234Z,46.28
2023-03-06T10:57:22.896Z,46.15
2023-03-06T11:01:21.957Z,45.71
2023-03-06T11:02:40.682Z,44.96
2023-03-06T11:03:49.604Z,45.21
2023-03-06T11:07:58.802Z,43.97
2023-03-06T11:10:35.962Z,44.16
2023-03-06T11:13:05.227Z,44.20
2023-03-06T11:15:33.810Z,44.13
2023-03-06T11:16:55.114Z,43.94
2023-03-06T11:18:07.888Z,43.80
2023-03-06T11:23:46.977Z,44.29
2023-03-06T11:26:21.735Z,43.01
2023-03-06T11:28:49.643Z,43.34
2023-03-06T11:31:20.767Z,42.77
2023-03-06T11:34:16.921Z,43.27
2023-03-06T11:35:35.710Z,43.43
2023-03-06T11:36:55.964Z,42.66
2023-03-06T11:39:47.101Z,43.23
2023-03-06T11:40:59.487Z,43.23
2023-03-06T11:42:17.662Z,42.92
2023-03-06T11:45:10.579Z,42.18
2023-03-06T11:48:01.077Z,41.40
2023-03-06T11:49:28.676Z,41.90
2023-03-06T11:50:44.297Z,42.38
2023-03-06T11:51:56.539Z,42.14
2023-03-06T11:53:08.965Z,42.21
2023-03-06T11:56:03.432Z,41.42
2023-03-06T11:57:25.023Z,40.88
2023-03-06T11:58:43.756Z,40.89
2023-03-06T12:01:44.872Z,41.22
2023-03-06T12:04:57.215Z,41.26
2023-03-06T12:09:16.147Z,40.97
2023-03-06T12:10:47.775Z,41.37
2023-03-06T12:12:08.138Z,41.11
2023-03-06T12:13:27.290Z,41.17
2023-03-06T12:14:46.461Z,41.10
2023-03-06T12:17:47.195Z,39.87
2023-03-06T12:20:24.639Z,39.96
2023-03-06T12:21:47.338Z,40.15
2023-03-06T12:24:52.060Z,39.81
2023-03-06T12:26:04.877Z,39.71
2023-03-06T12:27:29.695Z,39.80
2023-03-06T12:30:35.567Z,39.84
2023-03-06T12:33:30.610Z,39.36
2023-03-06T12:40:02.444Z,39.10
2023-03-06T12:43:05.235Z,38.96
2023-03-06T12:47:31.882Z,38.16
2023-03-06T12:48:45.593Z,36.94
2023-03-06T12:49:58.968Z,36.77
2023-03-06T12:51:11.668Z,37.39
2023-03-06T12:53:41.604Z,36.80
2023-03-06T12:54:51.382Z,37.04
2023-03-06T12:56:03.469Z,36.86
2023-03-06T12:57:16.425Z,36.66
2023-03-06T12:58:31.890Z,36.77
2023-03-06T12:59:49.071Z,36.76
2023-03-06T13:01:08.428Z,37.20
2023-03-06T13:02:48.389Z,37.16
2023-03-06T13:04:01.177Z,36.83
2023-03-06T13:05:29.036Z,36.35
2023-03-06T13:08:24.162Z,36.41
2023-03-06T13:11:40.812Z,35.87
2023-03-06T13:13:05.213Z,36.04
2023-03-06T13:15:46.915Z,35.69
2023-03-06T13:18:26.994Z,35.76
2023-03-06T13:19:35.530Z,35.99
2023-03-06T13:20:46.710Z,36.22
2023-03-06T13:22:00.547Z,35.79
2023-03-06T13:24:55.013Z,36.13
2023-03-06T13:26:27.229Z,36.48
2023-03-06T13:27:47.244Z,36.08
2023-03-06T13:28:57.590Z,35.66
2023-03-06T13:30:28.606Z,36.15
2023-03-06T13:31:40.942Z,36.46
2023-03-06T13:32:55.463Z,36.92
2023-03-06T13:34:08.367Z,36.29
2023-03-06T13:35:33.981Z,36.68
2023-03-06T13:37:59.298Z,36.09
2023-03-06T13:39:12.009Z,35.71
2023-03-06T13:41:59.457Z,36.22
2023-03-06T13:43:12.274Z,36.42
2023-03-06T13:44:27.844Z,36.40
2023-03-06T13:47:04.611Z,36.06
2023-03-06T13:49:46.454Z,35.73
2023-03-06T13:50:55.852Z,35.98
2023-03-06T13:52:12.088Z,36.08
2023-03-06T13:53:48.225Z,35.61
2023-03-06T13:57:06.515Z,35.51
2023-03-06T13:58:46.775Z,35.28
2023-03-06T14:01:55.312Z,35.50
2023-03-06T14:03:25.651Z,35.39
2023-03-06T14:05:54.007Z,35.80
2023-03-06T14:07:13.346Z,35.79
2023-03-06T14:08:33.868Z,35.67
2023-03-06T14:13:55.285Z,34.17
2023-03-06T14:16:43.839Z,34.12
2023-03-06T14:19:12.344Z,34.67
2023-03-06T14:20:26.273Z,34.80
2023-03-06T14:21:56.492Z,34.46
2023-03-06T14:26:50.904Z,34.34
2023-03-06T14:28:12.400Z,34.56
2023-03-06T14:29:25.514Z,34.43
2023-03-06T14:30:35.150Z,34.56
2023-03-06T14:31:44.132Z,34.63
2023-03-06T14:32:55.662Z,34.70
2023-03-06T14:34:11.437Z,34.19
2023-03-06T14:35:31.777Z,34.64
2023-03-06T14:36:46.491Z,34.55
2023-03-06T14:38:04.885Z,34.70
2023-03-06T14:40:38.738Z,35.10
2023-03-06T14:43:24.038Z,34.88
2023-03-06T14:45:59.071Z,35.03
2023-03-06T14:47:35.959Z,35.18
2023-03-06T14:48:47.606Z,35.02
2023-03-06T14:50:21.084Z,34.90
2023-03-06T14:52:49.070Z,35.56
2023-03-06T14:55:20.385Z,35.32
2023-03-06T14:57:51.174Z,35.35
2023-03-06T14:59:07.795Z,35.27
2023-03-06T15:00:21.387Z,35.16
2023-03-06T15:01:42.776Z,35.14
2023-03-06T15:02:53.945Z,35.21
2023-03-06T15:04:24.795Z,35.17
2023-03-06T15:05:35.195Z,35.05
2023-03-06T15:08:03.565Z,35.36
2023-03-06T15:09:19.974Z,35.22
2023-03-06T15:10:31.667Z,35.13
2023-03-06T15:12:02.214Z,35.29
2023-03-06T15:14:41.660Z,35.25
2023-03-06T15:18:39.065Z,35.16
2023-03-06T15:21:18.853Z,35.57
2023-03-06T15:23:57.630Z,35.85
2023-03-06T15:25:27.496Z,35.75
2023-03-06T15:26:37.683Z,35.86
2023-03-06T15:29:13.726Z,35.53
2023-03-06T15:30:35.076Z,35.41
2023-03-06T15:31:45.428Z,35.67
2023-03-06T15:33:17.905Z,35.81
2023-03-06T15:34:28.249Z,35.95
2023-03-06T15:36:57.772Z,36.29
2023-03-06T15:38:41.517Z,36.17
2023-03-06T15:41:25.820Z,36.71
2023-03-06T15:42:35.866Z,36.76
2023-03-06T15:43:44.520Z,36.96
2023-03-06T15:46:11.585Z,35.81
2023-03-06T15:47:22.305Z,35.91
2023-03-06T15:48:31.157Z,36.31
2023-03-06T15:49:40.508Z,36.52
2023-03-06T15:52:09.737Z,37.02
2023-03-06T15:53:19.960Z,37.11
2023-03-06T15:54:29.132Z,37.37
2023-03-06T15:55:38.672Z,37.42
2023-03-06T15:56:50.458Z,37.52
2023-03-06T15:58:05.060Z,37.47
2023-03-06T16:00:40.710Z,37.81
2023-03-06T16:01:50.629Z,37.92
2023-03-06T16:03:01.177Z,37.63
2023-03-06T16:04:09.611Z,37.14
2023-03-06T16:05:19.935Z,37.04
2023-03-06T16:06:29.581Z,37.15
2023-03-06T16:07:39.924Z,36.92
2023-03-06T16:10:06.341Z,37.26
2023-03-06T16:12:35.872Z,37.35
2023-03-06T16:13:46.420Z,37.21
2023-03-06T16:14:55.342Z,36.98
2023-03-06T16:16:04.989Z,36.98
2023-03-06T16:17:14.896Z,36.79
2023-03-06T16:18:23.455Z,36.77
2023-03-06T16:19:31.980Z,37.03
2023-03-06T16:20:41.717Z,37.33
2023-03-06T16:21:51.555Z,37.19
2023-03-06T16:23:00.525Z,37.30
2023-03-06T16:24:10.307Z,37.29
2023-03-06T16:25:20.392Z,37.30
2023-03-06T16:26:32.655Z,37.27
2023-03-06T16:27:48.082Z,37.44
2023-03-06T16:28:56.802Z,37.25
2023-03-06T16:30:07.705Z,37.31
2023-03-06T16:31:16.391Z,37.51
2023-03-06T16:33:42.039Z,37.91
2023-03-06T16:34:50.750Z,37.99
2023-03-06T16:36:00.912Z,38.23
2023-03-06T16:37:13.835Z,38.23
2023-03-06T16:38:22.341Z,38.07
2023-03-06T16:39:31.890Z,37.88
2023-03-06T16:41:57.012Z,38.22
2023-03-06T16:44:21.023Z,38.18
2023-03-06T16:45:30.815Z,38.10
2023-03-06T16:46:42.652Z,37.88
2023-03-06T16:47:52.764Z,38.01
2023-03-06T16:49:02.179Z,37.77
2023-03-06T16:50:29.114Z,37.93
2023-03-06T16:51:40.175Z,37.89
2023-03-06T16:52:50.572Z,37.43
2023-03-06T16:53:59.741Z,37.70
2023-03-06T16:56:25.160Z,38.34
2023-03-06T16:57:35.248Z,38.35
2023-03-06T16:58:45.304Z,38.54
2023-03-06T16:59:54.352Z,38.54
2023-03-06T17:01:03.436Z,38.72
2023-03-06T17:02:12.354Z,38.95
2023-03-06T17:03:21.385Z,39.15
2023-03-06T17:04:30.973Z,39.35
2023-03-06T17:06:56.076Z,39.52
2023-03-06T17:08:05.421Z,39.88
2023-03-06T17:09:13.963Z,40.22
2023-03-06T17:10:24.656Z,40.27
2023-03-06T17:11:37.826Z,40.42
2023-03-06T17:12:46.371Z,40.43
2023-03-06T17:13:57.116Z,40.33
2023-03-06T17:15:08.427Z,40.35
2023-03-06T17:17:34.252Z,40.38
2023-03-06T17:18:46.547Z,40.49
2023-03-06T17:21:11.013Z,40.74
2023-03-06T17:22:20.254Z,41.01
2023-03-06T17:23:30.452Z,41.11
2023-03-06T17:24:39.039Z,41.25
2023-03-06T17:25:48.313Z,41.32
2023-03-06T17:26:57.913Z,41.43
2023-03-06T17:28:07.854Z,41.73
2023-03-06T17:29:16.607Z,41.79
2023-03-06T17:30:27.511Z,41.85
2023-03-06T17:31:36.179Z,41.84
2023-03-06T17:32:45.078Z,41.90
2023-03-06T17:34:01.232Z,41.79
2023-03-06T17:36:29.989Z,42.19
2023-03-06T17:37:38.886Z,42.23
2023-03-06T17:38:47.727Z,42.26
2023-03-06T17:39:56.347Z,42.29
2023-03-06T17:41:07.388Z,42.15
2023-03-06T17:42:16.520Z,42.20
2023-03-06T17:43:25.799Z,42.08
2023-03-06T17:44:35.899Z,42.30
2023-03-06T17:45:46.707Z,42.19
2023-03-06T17:46:55.602Z,42.25
2023-03-06T17:49:22.444Z,42.33
2023-03-06T17:50:32.000Z,42.38
2023-03-06T17:51:41.543Z,42.28
2023-03-06T17:52:50.072Z,42.46
2023-03-06T17:55:13.939Z,41.94
2023-03-06T17:56:23.510Z,41.85
2023-03-06T17:57:32.052Z,41.99
2023-03-06T17:58:41.103Z,42.06
2023-03-06T18:01:14.029Z,42.33
2023-03-06T18:03:38.826Z,42.36
2023-03-06T18:06:04.780Z,42.85
2023-03-06T18:07:13.447Z,42.97
2023-03-06T18:08:23.195Z,43.45
2023-03-06T18:09:31.808Z,43.85
2023-03-06T18:10:43.025Z,44.13
2023-03-06T18:11:51.455Z,44.25
2023-03-06T18:13:00.008Z,44.43
2023-03-06T18:15:24.168Z,45.43
2023-03-06T18:16:34.320Z,45.37
2023-03-06T18:17:43.229Z,45.30
2023-03-06T18:18:53.744Z,45.47
2023-03-06T18:20:04.684Z,45.62
2023-03-06T18:21:16.651Z,45.63
2023-03-06T18:23:41.000Z,45.77
2023-03-06T18:26:11.703Z,46.17
2023-03-06T18:27:21.337Z,46.18
2023-03-06T18:28:30.872Z,46.31
2023-03-06T18:29:40.331Z,46.42
2023-03-06T18:30:49.532Z,46.37
2023-03-06T18:31:58.827Z,46.32
2023-03-06T18:33:10.025Z,46.41
2023-03-06T18:34:18.659Z,46.36
2023-03-06T18:35:27.803Z,46.31
2023-03-06T18:36:37.538Z,46.46
2023-03-06T18:37:46.207Z,46.19
2023-03-06T18:38:56.933Z,46.23
2023-03-06T18:41:22.849Z,46.32
2023-03-06T18:43:52.755Z,46.56
2023-03-06T18:45:02.635Z,46.65
2023-03-06T18:46:13.005Z,46.82
2023-03-06T18:47:21.631Z,46.85
2023-03-06T18:48:31.111Z,47.25
2023-03-06T18:49:41.583Z,47.48
2023-03-06T18:52:06.354Z,47.74
2023-03-06T18:53:14.774Z,47.76
2023-03-06T18:54:24.953Z,47.85
2023-03-06T18:55:33.346Z,47.95
2023-03-06T18:58:21.180Z,48.74
2023-03-06T18:59:29.722Z,49.10
2023-03-06T19:00:38.524Z,49.12
2023-03-06T19:01:47.856Z,49.11
2023-03-06T19:02:56.388Z,48.96
2023-03-06T19:04:05.853Z,49.05
2023-03-06T19:05:15.118Z,49.26
2023-03-06T19:06:26.965Z,49.57
2023-03-06T19:07:35.943Z,50.19
2023-03-06T19:08:45.137Z,50.18
2023-03-06T19:09:53.888Z,50.30
2023-03-06T19:12:20.798Z,50.49
2023-03-06T19:13:29.629Z,50.47
2023-03-06T19:14:39.191Z,50.57
2023-03-06T19:17:04.146Z,50.72
2023-03-06T19:18:15.883Z,50.74